sensor_id;sensor_type;location;lat;lon;timestamp;temperature;humidity
8422;DHT22;4248;48.196;10.924;2024-02-26T00:01:40;3.20;27.90
8422;DHT22;4248;48.196;10.924;2024-02-26T00:04:05;3.20;27.90
8422;DHT22;4248;48.196;10.924;2024-02-26T00:06:31;3.10;27.90
8422;DHT22;4248;48.196;10.924;2024-02-26T00:08:57;3.00;28.10
8422;DHT22;4248;48.196;10.924;2024-02-26T00:11:22;2.90;28.40
8422;DHT22;4248;48.196;10.924;2024-02-26T00:13:48;2.90;28.40
8422;DHT22;4248;48.196;10.924;2024-02-26T00:16:14;2.90;28.40
8422;DHT22;4248;48.196;10.924;2024-02-26T00:18:39;2.90;28.40
8422;DHT22;4248;48.196;10.924;2024-02-26T00:21:05;2.90;28.40
8422;DHT22;4248;48.196;10.924;2024-02-26T00:23:30;2.90;28.40
8422;DHT22;4248;48.196;10.924;2024-02-26T00:25:56;2.90;28.40
8422;DHT22;4248;48.196;10.924;2024-02-26T00:28:22;2.90;28.30
8422;DHT22;4248;48.196;10.924;2024-02-26T00:30:47;2.90;28.40
8422;DHT22;4248;48.196;10.924;2024-02-26T00:33:16;2.90;28.40
8422;DHT22;4248;48.196;10.924;2024-02-26T00:35:42;2.90;28.40
8422;DHT22;4248;48.196;10.924;2024-02-26T00:38:07;3.00;28.50
8422;DHT22;4248;48.196;10.924;2024-02-26T00:40:33;2.90;28.50
8422;DHT22;4248;48.196;10.924;2024-02-26T00:42:59;2.90;28.50
8422;DHT22;4248;48.196;10.924;2024-02-26T00:45:25;2.80;28.40
8422;DHT22;4248;48.196;10.924;2024-02-26T00:47:50;2.80;28.50
8422;DHT22;4248;48.196;10.924;2024-02-26T00:50:16;2.80;28.40
8422;DHT22;4248;48.196;10.924;2024-02-26T00:52:42;2.80;28.40
8422;DHT22;4248;48.196;10.924;2024-02-26T00:55:08;2.80;28.60
8422;DHT22;4248;48.196;10.924;2024-02-26T00:57:33;2.90;28.50
8422;DHT22;4248;48.196;10.924;2024-02-26T00:59:59;2.90;28.30
8422;DHT22;4248;48.196;10.924;2024-02-26T01:02:26;3.00;28.00
8422;DHT22;4248;48.196;10.924;2024-02-26T01:04:51;3.10;27.80
8422;DHT22;4248;48.196;10.924;2024-02-26T01:07:17;3.10;27.80
8422;DHT22;4248;48.196;10.924;2024-02-26T01:09:43;3.10;27.90
8422;DHT22;4248;48.196;10.924;2024-02-26T01:12:08;3.10;27.80
8422;DHT22;4248;48.196;10.924;2024-02-26T01:14:34;3.10;27.90
8422;DHT22;4248;48.196;10.924;2024-02-26T01:17:00;3.10;28.00
8422;DHT22;4248;48.196;10.924;2024-02-26T01:19:25;3.00;28.10
8422;DHT22;4248;48.196;10.924;2024-02-26T01:21:51;3.00;28.20
8422;DHT22;4248;48.196;10.924;2024-02-26T01:24:16;3.10;28.30
8422;DHT22;4248;48.196;10.924;2024-02-26T01:26:42;3.10;28.10
8422;DHT22;4248;48.196;10.924;2024-02-26T01:29:08;3.20;28.10
8422;DHT22;4248;48.196;10.924;2024-02-26T01:31:34;3.20;27.90
8422;DHT22;4248;48.196;10.924;2024-02-26T01:34:00;3.20;27.90
8422;DHT22;4248;48.196;10.924;2024-02-26T01:36:25;3.10;27.80
8422;DHT22;4248;48.196;10.924;2024-02-26T01:38:51;3.10;27.80
8422;DHT22;4248;48.196;10.924;2024-02-26T01:41:16;3.00;28.00
8422;DHT22;4248;48.196;10.924;2024-02-26T01:43:42;3.00;28.00
8422;DHT22;4248;48.196;10.924;2024-02-26T01:46:11;2.90;28.10
8422;DHT22;4248;48.196;10.924;2024-02-26T01:48:42;2.90;28.30
8422;DHT22;4248;48.196;10.924;2024-02-26T01:51:08;2.90;29.20
8422;DHT22;4248;48.196;10.924;2024-02-26T01:53:34;2.90;28.30
8422;DHT22;4248;48.196;10.924;2024-02-26T01:56:00;2.90;28.30
8422;DHT22;4248;48.196;10.924;2024-02-26T01:58:26;3.00;28.10
8422;DHT22;4248;48.196;10.924;2024-02-26T02:00:52;3.00;28.00
8422;DHT22;4248;48.196;10.924;2024-02-26T02:03:18;3.10;27.80
8422;DHT22;4248;48.196;10.924;2024-02-26T02:05:44;3.10;27.70
8422;DHT22;4248;48.196;10.924;2024-02-26T02:08:13;3.20;27.50
8422;DHT22;4248;48.196;10.924;2024-02-26T02:10:40;3.30;27.20
8422;DHT22;4248;48.196;10.924;2024-02-26T02:13:07;3.30;26.90
8422;DHT22;4248;48.196;10.924;2024-02-26T02:15:32;3.30;27.00
8422;DHT22;4248;48.196;10.924;2024-02-26T02:17:58;3.30;27.40
8422;DHT22;4248;48.196;10.924;2024-02-26T02:20:31;3.30;27.30
8422;DHT22;4248;48.196;10.924;2024-02-26T02:22:58;3.30;27.30
8422;DHT22;4248;48.196;10.924;2024-02-26T02:25:23;3.40;27.20
8422;DHT22;4248;48.196;10.924;2024-02-26T02:27:49;3.30;27.40
8422;DHT22;4248;48.196;10.924;2024-02-26T02:30:15;3.30;27.30
8422;DHT22;4248;48.196;10.924;2024-02-26T02:32:42;3.40;27.30
8422;DHT22;4248;48.196;10.924;2024-02-26T02:35:07;3.40;27.10
8422;DHT22;4248;48.196;10.924;2024-02-26T02:37:33;3.50;27.10
8422;DHT22;4248;48.196;10.924;2024-02-26T02:39:59;3.50;27.10
8422;DHT22;4248;48.196;10.924;2024-02-26T02:42:25;3.50;27.10
8422;DHT22;4248;48.196;10.924;2024-02-26T02:44:51;3.50;26.80
8422;DHT22;4248;48.196;10.924;2024-02-26T02:47:17;3.60;26.90
8422;DHT22;4248;48.196;10.924;2024-02-26T02:49:42;3.60;26.90
8422;DHT22;4248;48.196;10.924;2024-02-26T02:52:08;3.60;26.80
8422;DHT22;4248;48.196;10.924;2024-02-26T02:54:33;3.70;26.70
8422;DHT22;4248;48.196;10.924;2024-02-26T02:56:59;3.70;26.60
8422;DHT22;4248;48.196;10.924;2024-02-26T02:59:25;3.80;26.40
8422;DHT22;4248;48.196;10.924;2024-02-26T03:01:50;3.90;26.30
8422;DHT22;4248;48.196;10.924;2024-02-26T03:04:17;3.90;26.40
8422;DHT22;4248;48.196;10.924;2024-02-26T03:06:42;3.90;26.20
8422;DHT22;4248;48.196;10.924;2024-02-26T03:09:08;3.90;26.20
8422;DHT22;4248;48.196;10.924;2024-02-26T03:11:33;3.90;26.10
8422;DHT22;4248;48.196;10.924;2024-02-26T03:13:59;4.00;26.10
8422;DHT22;4248;48.196;10.924;2024-02-26T03:16:25;3.90;26.20
8422;DHT22;4248;48.196;10.924;2024-02-26T03:18:50;4.10;26.20
8422;DHT22;4248;48.196;10.924;2024-02-26T03:21:16;4.00;25.90
8422;DHT22;4248;48.196;10.924;2024-02-26T03:23:41;4.10;26.00
8422;DHT22;4248;48.196;10.924;2024-02-26T03:26:07;4.10;25.50
8422;DHT22;4248;48.196;10.924;2024-02-26T03:28:34;4.20;25.40
8422;DHT22;4248;48.196;10.924;2024-02-26T03:31:00;4.20;25.10
8422;DHT22;4248;48.196;10.924;2024-02-26T03:33:26;4.20;25.00
8422;DHT22;4248;48.196;10.924;2024-02-26T03:35:52;4.30;25.10
8422;DHT22;4248;48.196;10.924;2024-02-26T03:38:17;4.30;25.10
8422;DHT22;4248;48.196;10.924;2024-02-26T03:40:43;4.30;25.20
8422;DHT22;4248;48.196;10.924;2024-02-26T03:43:08;4.30;25.30
8422;DHT22;4248;48.196;10.924;2024-02-26T03:45:34;4.30;25.20
8422;DHT22;4248;48.196;10.924;2024-02-26T03:47:59;4.30;25.30
8422;DHT22;4248;48.196;10.924;2024-02-26T03:50:25;4.20;25.50
8422;DHT22;4248;48.196;10.924;2024-02-26T03:52:51;4.10;25.60
8422;DHT22;4248;48.196;10.924;2024-02-26T03:55:16;4.10;25.80
8422;DHT22;4248;48.196;10.924;2024-02-26T03:57:50;4.00;25.80
8422;DHT22;4248;48.196;10.924;2024-02-26T04:00:16;4.00;26.00
8422;DHT22;4248;48.196;10.924;2024-02-26T04:02:42;4.00;25.90
8422;DHT22;4248;48.196;10.924;2024-02-26T04:05:11;4.10;26.00
8422;DHT22;4248;48.196;10.924;2024-02-26T04:07:37;4.00;25.80
8422;DHT22;4248;48.196;10.924;2024-02-26T04:10:02;4.00;26.00
8422;DHT22;4248;48.196;10.924;2024-02-26T04:12:31;3.90;26.10
8422;DHT22;4248;48.196;10.924;2024-02-26T04:14:56;3.80;26.20
8422;DHT22;4248;48.196;10.924;2024-02-26T04:17:22;3.80;26.30
8422;DHT22;4248;48.196;10.924;2024-02-26T04:19:47;3.70;26.40
8422;DHT22;4248;48.196;10.924;2024-02-26T04:22:13;3.70;26.50
8422;DHT22;4248;48.196;10.924;2024-02-26T04:24:38;3.60;26.70
8422;DHT22;4248;48.196;10.924;2024-02-26T04:27:04;3.50;26.80
8422;DHT22;4248;48.196;10.924;2024-02-26T04:29:30;3.50;27.10
8422;DHT22;4248;48.196;10.924;2024-02-26T04:31:55;3.50;27.10
8422;DHT22;4248;48.196;10.924;2024-02-26T04:34:21;3.50;27.10
8422;DHT22;4248;48.196;10.924;2024-02-26T04:36:46;3.50;27.00
8422;DHT22;4248;48.196;10.924;2024-02-26T04:39:13;3.60;26.80
8422;DHT22;4248;48.196;10.924;2024-02-26T04:41:39;3.60;26.60
8422;DHT22;4248;48.196;10.924;2024-02-26T04:44:05;3.60;26.60
8422;DHT22;4248;48.196;10.924;2024-02-26T04:46:30;3.60;26.70
8422;DHT22;4248;48.196;10.924;2024-02-26T04:48:56;3.60;26.70
8422;DHT22;4248;48.196;10.924;2024-02-26T04:51:21;3.70;26.70
8422;DHT22;4248;48.196;10.924;2024-02-26T04:53:47;3.70;26.30
8422;DHT22;4248;48.196;10.924;2024-02-26T04:56:13;3.80;26.20
8422;DHT22;4248;48.196;10.924;2024-02-26T04:58:38;3.90;26.10
8422;DHT22;4248;48.196;10.924;2024-02-26T05:01:05;3.90;26.10
8422;DHT22;4248;48.196;10.924;2024-02-26T05:03:31;3.90;26.10
8422;DHT22;4248;48.196;10.924;2024-02-26T05:05:56;3.80;26.30
8422;DHT22;4248;48.196;10.924;2024-02-26T05:08:23;3.70;26.60
8422;DHT22;4248;48.196;10.924;2024-02-26T05:10:49;3.60;26.90
8422;DHT22;4248;48.196;10.924;2024-02-26T05:13:14;3.50;27.30
8422;DHT22;4248;48.196;10.924;2024-02-26T05:15:41;3.40;27.70
8422;DHT22;4248;48.196;10.924;2024-02-26T05:18:07;3.40;27.80
8422;DHT22;4248;48.196;10.924;2024-02-26T05:20:33;3.30;27.90
8422;DHT22;4248;48.196;10.924;2024-02-26T05:23:00;3.40;27.70
8422;DHT22;4248;48.196;10.924;2024-02-26T05:25:26;3.40;27.50
8422;DHT22;4248;48.196;10.924;2024-02-26T05:27:51;3.50;27.50
8422;DHT22;4248;48.196;10.924;2024-02-26T05:30:17;3.40;27.80
8422;DHT22;4248;48.196;10.924;2024-02-26T05:32:42;3.40;27.80
8422;DHT22;4248;48.196;10.924;2024-02-26T05:35:08;3.40;27.80
8422;DHT22;4248;48.196;10.924;2024-02-26T05:37:34;3.50;27.80
8422;DHT22;4248;48.196;10.924;2024-02-26T05:39:59;3.50;27.60
8422;DHT22;4248;48.196;10.924;2024-02-26T05:42:25;3.60;27.50
8422;DHT22;4248;48.196;10.924;2024-02-26T05:44:51;3.70;27.20
8422;DHT22;4248;48.196;10.924;2024-02-26T05:47:16;3.80;27.20
8422;DHT22;4248;48.196;10.924;2024-02-26T05:49:43;3.70;27.70
8422;DHT22;4248;48.196;10.924;2024-02-26T05:52:08;3.60;28.00
8422;DHT22;4248;48.196;10.924;2024-02-26T05:54:34;3.60;28.10
8422;DHT22;4248;48.196;10.924;2024-02-26T05:56:59;3.70;28.10
8422;DHT22;4248;48.196;10.924;2024-02-26T05:59:25;3.70;27.90
8422;DHT22;4248;48.196;10.924;2024-02-26T06:01:50;3.80;28.10
8422;DHT22;4248;48.196;10.924;2024-02-26T06:04:16;3.80;27.90
8422;DHT22;4248;48.196;10.924;2024-02-26T06:06:45;4.00;27.60
8422;DHT22;4248;48.196;10.924;2024-02-26T06:09:13;4.10;27.30
8422;DHT22;4248;48.196;10.924;2024-02-26T06:11:39;4.10;27.10
8422;DHT22;4248;48.196;10.924;2024-02-26T06:14:04;4.20;27.20
8422;DHT22;4248;48.196;10.924;2024-02-26T06:16:30;4.20;27.10
8422;DHT22;4248;48.196;10.924;2024-02-26T06:18:56;4.30;27.20
8422;DHT22;4248;48.196;10.924;2024-02-26T06:21:22;4.40;27.20
8422;DHT22;4248;48.196;10.924;2024-02-26T06:23:47;4.30;27.20
8422;DHT22;4248;48.196;10.924;2024-02-26T06:26:13;4.30;27.40
8422;DHT22;4248;48.196;10.924;2024-02-26T06:28:39;4.40;27.40
8422;DHT22;4248;48.196;10.924;2024-02-26T06:31:06;4.40;27.40
8422;DHT22;4248;48.196;10.924;2024-02-26T06:33:32;4.30;27.40
8422;DHT22;4248;48.196;10.924;2024-02-26T06:35:57;4.30;27.80
8422;DHT22;4248;48.196;10.924;2024-02-26T06:38:23;4.40;27.60
8422;DHT22;4248;48.196;10.924;2024-02-26T06:40:48;4.50;27.50
8422;DHT22;4248;48.196;10.924;2024-02-26T06:43:14;4.50;27.50
8422;DHT22;4248;48.196;10.924;2024-02-26T06:45:39;4.40;27.70
8422;DHT22;4248;48.196;10.924;2024-02-26T06:48:05;4.40;27.80
8422;DHT22;4248;48.196;10.924;2024-02-26T06:50:31;4.50;27.70
8422;DHT22;4248;48.196;10.924;2024-02-26T06:52:56;4.50;27.50
8422;DHT22;4248;48.196;10.924;2024-02-26T06:55:22;4.50;27.80
8422;DHT22;4248;48.196;10.924;2024-02-26T06:57:47;4.40;28.10
8422;DHT22;4248;48.196;10.924;2024-02-26T07:00:13;4.60;27.80
8422;DHT22;4248;48.196;10.924;2024-02-26T07:02:42;4.70;27.70
8422;DHT22;4248;48.196;10.924;2024-02-26T07:05:08;4.60;27.80
8422;DHT22;4248;48.196;10.924;2024-02-26T07:07:33;4.60;28.10
8422;DHT22;4248;48.196;10.924;2024-02-26T07:09:59;4.60;28.00
8422;DHT22;4248;48.196;10.924;2024-02-26T07:12:25;4.80;27.80
8422;DHT22;4248;48.196;10.924;2024-02-26T07:14:51;4.80;27.60
8422;DHT22;4248;48.196;10.924;2024-02-26T07:17:17;4.90;27.40
8422;DHT22;4248;48.196;10.924;2024-02-26T07:19:43;4.90;27.50
8422;DHT22;4248;48.196;10.924;2024-02-26T07:22:08;4.90;27.70
8422;DHT22;4248;48.196;10.924;2024-02-26T07:24:34;4.80;27.70
8422;DHT22;4248;48.196;10.924;2024-02-26T07:27:00;4.80;28.10
8422;DHT22;4248;48.196;10.924;2024-02-26T07:29:25;4.70;28.30
8422;DHT22;4248;48.196;10.924;2024-02-26T07:31:51;4.60;28.70
8422;DHT22;4248;48.196;10.924;2024-02-26T07:34:16;4.70;28.80
8422;DHT22;4248;48.196;10.924;2024-02-26T07:36:42;4.80;28.60
8422;DHT22;4248;48.196;10.924;2024-02-26T07:39:08;5.00;28.20
8422;DHT22;4248;48.196;10.924;2024-02-26T07:41:33;5.30;28.00
8422;DHT22;4248;48.196;10.924;2024-02-26T07:43:59;5.40;27.80
8422;DHT22;4248;48.196;10.924;2024-02-26T07:46:24;5.60;27.50
8422;DHT22;4248;48.196;10.924;2024-02-26T07:48:50;5.80;27.40
8422;DHT22;4248;48.196;10.924;2024-02-26T07:51:15;6.10;27.00
8422;DHT22;4248;48.196;10.924;2024-02-26T07:53:42;6.50;26.50
8422;DHT22;4248;48.196;10.924;2024-02-26T07:56:09;6.80;25.70
8422;DHT22;4248;48.196;10.924;2024-02-26T07:58:34;7.20;25.00
8422;DHT22;4248;48.196;10.924;2024-02-26T08:01:00;7.40;25.20
8422;DHT22;4248;48.196;10.924;2024-02-26T08:03:25;7.40;25.10
8422;DHT22;4248;48.196;10.924;2024-02-26T08:05:51;7.60;25.30
8422;DHT22;4248;48.196;10.924;2024-02-26T08:08:17;7.80;25.00
8422;DHT22;4248;48.196;10.924;2024-02-26T08:10:43;7.80;25.10
8422;DHT22;4248;48.196;10.924;2024-02-26T08:13:09;7.70;25.40
8422;DHT22;4248;48.196;10.924;2024-02-26T08:15:37;7.50;25.30
8422;DHT22;4248;48.196;10.924;2024-02-26T08:18:03;7.30;25.10
8422;DHT22;4248;48.196;10.924;2024-02-26T08:20:30;7.10;25.60
8422;DHT22;4248;48.196;10.924;2024-02-26T08:22:56;7.30;25.10
8422;DHT22;4248;48.196;10.924;2024-02-26T08:25:22;7.40;25.10
8422;DHT22;4248;48.196;10.924;2024-02-26T08:27:48;7.50;25.20
8422;DHT22;4248;48.196;10.924;2024-02-26T08:30:15;7.40;24.60
8422;DHT22;4248;48.196;10.924;2024-02-26T08:32:45;7.40;24.50
8422;DHT22;4248;48.196;10.924;2024-02-26T08:35:11;7.30;25.10
8422;DHT22;4248;48.196;10.924;2024-02-26T08:37:37;7.30;25.10
8422;DHT22;4248;48.196;10.924;2024-02-26T08:40:03;7.30;24.60
8422;DHT22;4248;48.196;10.924;2024-02-26T08:42:29;7.30;24.40
8422;DHT22;4248;48.196;10.924;2024-02-26T08:44:55;7.30;24.50
8422;DHT22;4248;48.196;10.924;2024-02-26T08:47:20;7.40;24.80
8422;DHT22;4248;48.196;10.924;2024-02-26T08:49:46;7.40;24.80
8422;DHT22;4248;48.196;10.924;2024-02-26T08:52:12;7.60;24.40
8422;DHT22;4248;48.196;10.924;2024-02-26T08:54:37;7.70;24.20
8422;DHT22;4248;48.196;10.924;2024-02-26T08:57:03;8.00;23.60
8422;DHT22;4248;48.196;10.924;2024-02-26T08:59:29;8.20;23.10
8422;DHT22;4248;48.196;10.924;2024-02-26T09:01:55;8.30;22.70
8422;DHT22;4248;48.196;10.924;2024-02-26T09:04:20;8.30;22.20
8422;DHT22;4248;48.196;10.924;2024-02-26T09:06:46;8.40;21.70
8422;DHT22;4248;48.196;10.924;2024-02-26T09:09:12;8.30;21.70
8422;DHT22;4248;48.196;10.924;2024-02-26T09:11:38;8.30;21.60
8422;DHT22;4248;48.196;10.924;2024-02-26T09:14:03;8.40;21.70
8422;DHT22;4248;48.196;10.924;2024-02-26T09:16:30;8.50;21.30
8422;DHT22;4248;48.196;10.924;2024-02-26T09:18:56;8.70;21.20
8422;DHT22;4248;48.196;10.924;2024-02-26T09:21:22;8.80;21.10
8422;DHT22;4248;48.196;10.924;2024-02-26T09:23:50;8.90;21.00
8422;DHT22;4248;48.196;10.924;2024-02-26T09:26:16;9.00;21.10
8422;DHT22;4248;48.196;10.924;2024-02-26T09:28:41;9.30;20.60
8422;DHT22;4248;48.196;10.924;2024-02-26T09:31:07;9.50;20.10
8422;DHT22;4248;48.196;10.924;2024-02-26T09:33:33;9.60;19.70
8422;DHT22;4248;48.196;10.924;2024-02-26T09:35:58;9.70;19.00
8422;DHT22;4248;48.196;10.924;2024-02-26T09:38:26;9.70;19.30
8422;DHT22;4248;48.196;10.924;2024-02-26T09:40:52;9.70;19.40
8422;DHT22;4248;48.196;10.924;2024-02-26T09:43:21;9.80;19.20
8422;DHT22;4248;48.196;10.924;2024-02-26T09:45:47;9.70;19.50
8422;DHT22;4248;48.196;10.924;2024-02-26T09:48:15;9.70;19.60
8422;DHT22;4248;48.196;10.924;2024-02-26T09:50:43;9.70;19.50
8422;DHT22;4248;48.196;10.924;2024-02-26T09:53:11;9.80;19.30
8422;DHT22;4248;48.196;10.924;2024-02-26T09:55:37;9.70;19.10
8422;DHT22;4248;48.196;10.924;2024-02-26T09:58:05;9.70;19.00
8422;DHT22;4248;48.196;10.924;2024-02-26T10:00:31;9.60;19.80
8422;DHT22;4248;48.196;10.924;2024-02-26T10:03:06;9.60;18.70
8422;DHT22;4248;48.196;10.924;2024-02-26T10:05:35;9.50;18.30
8422;DHT22;4248;48.196;10.924;2024-02-26T10:08:04;9.60;18.20
8422;DHT22;4248;48.196;10.924;2024-02-26T10:10:30;9.70;17.80
8422;DHT22;4248;48.196;10.924;2024-02-26T10:12:59;9.90;17.50
8422;DHT22;4248;48.196;10.924;2024-02-26T10:15:25;10.20;16.10
8422;DHT22;4248;48.196;10.924;2024-02-26T10:17:51;10.30;15.50
8422;DHT22;4248;48.196;10.924;2024-02-26T10:20:17;10.30;15.50
8422;DHT22;4248;48.196;10.924;2024-02-26T10:22:44;10.30;15.50
8422;DHT22;4248;48.196;10.924;2024-02-26T10:25:10;10.40;15.60
8422;DHT22;4248;48.196;10.924;2024-02-26T10:27:35;10.40;15.60
8422;DHT22;4248;48.196;10.924;2024-02-26T10:30:25;10.50;15.70
8422;DHT22;4248;48.196;10.924;2024-02-26T10:32:52;10.50;15.70
8422;DHT22;4248;48.196;10.924;2024-02-26T10:35:18;10.50;15.20
8422;DHT22;4248;48.196;10.924;2024-02-26T10:37:44;10.40;15.30
8422;DHT22;4248;48.196;10.924;2024-02-26T10:40:13;10.50;15.40
8422;DHT22;4248;48.196;10.924;2024-02-26T10:42:40;10.70;15.20
8422;DHT22;4248;48.196;10.924;2024-02-26T10:45:09;10.90;14.90
8422;DHT22;4248;48.196;10.924;2024-02-26T10:47:36;10.80;14.60
8422;DHT22;4248;48.196;10.924;2024-02-26T10:50:03;10.80;14.20
8422;DHT22;4248;48.196;10.924;2024-02-26T10:52:32;10.80;14.20
8422;DHT22;4248;48.196;10.924;2024-02-26T10:55:08;10.90;13.90
8422;DHT22;4248;48.196;10.924;2024-02-26T10:57:39;10.90;13.10
8422;DHT22;4248;48.196;10.924;2024-02-26T11:00:06;10.90;13.40
8422;DHT22;4248;48.196;10.924;2024-02-26T11:02:36;10.90;13.50
8422;DHT22;4248;48.196;10.924;2024-02-26T11:05:06;11.00;13.30
8422;DHT22;4248;48.196;10.924;2024-02-26T11:07:33;11.20;13.30
8422;DHT22;4248;48.196;10.924;2024-02-26T11:10:00;11.00;12.90
8422;DHT22;4248;48.196;10.924;2024-02-26T11:12:28;11.10;13.10
8422;DHT22;4248;48.196;10.924;2024-02-26T11:14:55;11.40;12.80
8422;DHT22;4248;48.196;10.924;2024-02-26T11:17:22;11.60;12.40
8422;DHT22;4248;48.196;10.924;2024-02-26T11:19:50;11.50;12.50
8422;DHT22;4248;48.196;10.924;2024-02-26T11:22:16;11.50;12.70
8422;DHT22;4248;48.196;10.924;2024-02-26T11:24:42;11.40;12.80
8422;DHT22;4248;48.196;10.924;2024-02-26T11:27:10;11.30;13.00
8422;DHT22;4248;48.196;10.924;2024-02-26T11:29:44;11.50;13.20
8422;DHT22;4248;48.196;10.924;2024-02-26T11:32:13;11.70;12.50
8422;DHT22;4248;48.196;10.924;2024-02-26T11:34:39;11.60;12.40
8422;DHT22;4248;48.196;10.924;2024-02-26T11:37:16;11.40;12.30
8422;DHT22;4248;48.196;10.924;2024-02-26T11:39:43;11.20;12.70
8422;DHT22;4248;48.196;10.924;2024-02-26T11:42:14;11.00;12.80
8422;DHT22;4248;48.196;10.924;2024-02-26T11:44:42;11.00;12.80
8422;DHT22;4248;48.196;10.924;2024-02-26T11:47:12;10.80;12.90
8422;DHT22;4248;48.196;10.924;2024-02-26T11:49:38;10.80;13.10
8422;DHT22;4248;48.196;10.924;2024-02-26T11:52:06;10.90;13.20
8422;DHT22;4248;48.196;10.924;2024-02-26T11:54:49;10.90;12.90
8422;DHT22;4248;48.196;10.924;2024-02-26T11:57:46;11.00;13.10
8422;DHT22;4248;48.196;10.924;2024-02-26T12:00:15;11.10;12.90
8422;DHT22;4248;48.196;10.924;2024-02-26T12:05:16;11.00;12.90
8422;DHT22;4248;48.196;10.924;2024-02-26T12:07:46;11.00;13.00
8422;DHT22;4248;48.196;10.924;2024-02-26T12:10:31;11.10;12.80
8422;DHT22;4248;48.196;10.924;2024-02-26T12:13:09;11.40;12.30
8422;DHT22;4248;48.196;10.924;2024-02-26T12:15:57;11.60;11.70
8422;DHT22;4248;48.196;10.924;2024-02-26T12:18:24;11.70;10.90
8422;DHT22;4248;48.196;10.924;2024-02-26T12:21:00;11.90;10.80
8422;DHT22;4248;48.196;10.924;2024-02-26T12:23:29;12.20;10.40
8422;DHT22;4248;48.196;10.924;2024-02-26T12:26:01;12.40;10.20
8422;DHT22;4248;48.196;10.924;2024-02-26T12:28:30;12.30;9.30
8422;DHT22;4248;48.196;10.924;2024-02-26T12:30:56;12.40;9.30
8422;DHT22;4248;48.196;10.924;2024-02-26T12:33:25;12.20;9.20
8422;DHT22;4248;48.196;10.924;2024-02-26T12:35:52;12.10;9.10
8422;DHT22;4248;48.196;10.924;2024-02-26T12:38:17;12.20;9.20
8422;DHT22;4248;48.196;10.924;2024-02-26T12:40:45;12.30;8.60
8422;DHT22;4248;48.196;10.924;2024-02-26T12:43:10;12.40;8.30
8422;DHT22;4248;48.196;10.924;2024-02-26T12:45:41;12.50;7.50
8422;DHT22;4248;48.196;10.924;2024-02-26T12:48:07;12.40;7.50
8422;DHT22;4248;48.196;10.924;2024-02-26T12:50:33;12.50;7.50
8422;DHT22;4248;48.196;10.924;2024-02-26T12:52:59;12.70;7.30
8422;DHT22;4248;48.196;10.924;2024-02-26T12:55:25;12.90;6.90
8422;DHT22;4248;48.196;10.924;2024-02-26T12:57:52;13.00;6.90
8422;DHT22;4248;48.196;10.924;2024-02-26T13:00:24;13.20;6.50
8422;DHT22;4248;48.196;10.924;2024-02-26T13:02:50;13.20;6.50
8422;DHT22;4248;48.196;10.924;2024-02-26T13:05:18;13.30;6.60
8422;DHT22;4248;48.196;10.924;2024-02-26T13:07:44;13.30;6.50
8422;DHT22;4248;48.196;10.924;2024-02-26T13:10:13;13.20;6.50
8422;DHT22;4248;48.196;10.924;2024-02-26T13:12:46;13.10;6.40
8422;DHT22;4248;48.196;10.924;2024-02-26T13:15:17;13.10;6.40
8422;DHT22;4248;48.196;10.924;2024-02-26T13:17:46;13.10;6.50
8422;DHT22;4248;48.196;10.924;2024-02-26T13:20:12;13.20;6.50
8422;DHT22;4248;48.196;10.924;2024-02-26T13:22:39;13.20;6.50
8422;DHT22;4248;48.196;10.924;2024-02-26T13:25:05;13.30;6.50
8422;DHT22;4248;48.196;10.924;2024-02-26T13:27:33;13.30;6.30
8422;DHT22;4248;48.196;10.924;2024-02-26T13:30:12;13.20;6.50
8422;DHT22;4248;48.196;10.924;2024-02-26T13:32:39;13.10;6.40
8422;DHT22;4248;48.196;10.924;2024-02-26T13:37:33;13.00;6.30
8422;DHT22;4248;48.196;10.924;2024-02-26T13:39:59;12.90;6.30
8422;DHT22;4248;48.196;10.924;2024-02-26T13:42:24;12.90;6.30
8422;DHT22;4248;48.196;10.924;2024-02-26T13:44:50;12.80;6.20
8422;DHT22;4248;48.196;10.924;2024-02-26T13:47:15;12.80;6.30
8422;DHT22;4248;48.196;10.924;2024-02-26T13:49:41;12.80;6.20
8422;DHT22;4248;48.196;10.924;2024-02-26T13:52:07;12.80;6.20
8422;DHT22;4248;48.196;10.924;2024-02-26T13:54:32;12.80;6.30
8422;DHT22;4248;48.196;10.924;2024-02-26T13:56:59;12.80;6.20
8422;DHT22;4248;48.196;10.924;2024-02-26T13:59:24;12.90;6.30
8422;DHT22;4248;48.196;10.924;2024-02-26T14:01:50;12.80;6.20
8422;DHT22;4248;48.196;10.924;2024-02-26T14:04:15;12.70;6.20
8422;DHT22;4248;48.196;10.924;2024-02-26T14:06:42;12.70;6.20
8422;DHT22;4248;48.196;10.924;2024-02-26T14:09:07;12.80;6.20
8422;DHT22;4248;48.196;10.924;2024-02-26T14:11:33;12.70;6.10
8422;DHT22;4248;48.196;10.924;2024-02-26T14:13:59;12.70;6.10
8422;DHT22;4248;48.196;10.924;2024-02-26T14:16:25;12.70;6.10
8422;DHT22;4248;48.196;10.924;2024-02-26T14:18:51;12.70;6.10
8422;DHT22;4248;48.196;10.924;2024-02-26T14:21:16;12.50;6.00
8422;DHT22;4248;48.196;10.924;2024-02-26T14:23:42;12.50;6.00
8422;DHT22;4248;48.196;10.924;2024-02-26T14:26:10;12.50;6.00
8422;DHT22;4248;48.196;10.924;2024-02-26T14:28:35;12.50;6.00
8422;DHT22;4248;48.196;10.924;2024-02-26T14:31:01;12.40;5.90
8422;DHT22;4248;48.196;10.924;2024-02-26T14:33:26;12.40;5.90
8422;DHT22;4248;48.196;10.924;2024-02-26T14:35:52;12.40;5.90
8422;DHT22;4248;48.196;10.924;2024-02-26T14:38:17;12.50;6.00
8422;DHT22;4248;48.196;10.924;2024-02-26T14:40:43;12.50;6.00
8422;DHT22;4248;48.196;10.924;2024-02-26T14:43:08;12.60;6.10
8422;DHT22;4248;48.196;10.924;2024-02-26T14:45:35;12.50;6.10
8422;DHT22;4248;48.196;10.924;2024-02-26T14:48:01;12.60;6.10
8422;DHT22;4248;48.196;10.924;2024-02-26T14:50:26;12.60;7.00
8422;DHT22;4248;48.196;10.924;2024-02-26T14:52:52;12.60;6.10
8422;DHT22;4248;48.196;10.924;2024-02-26T14:55:17;12.60;6.10
8422;DHT22;4248;48.196;10.924;2024-02-26T14:57:43;12.60;6.10
8422;DHT22;4248;48.196;10.924;2024-02-26T15:00:09;12.60;6.10
8422;DHT22;4248;48.196;10.924;2024-02-26T15:02:35;12.60;6.10
8422;DHT22;4248;48.196;10.924;2024-02-26T15:05:00;12.60;6.10
8422;DHT22;4248;48.196;10.924;2024-02-26T15:07:26;12.50;6.00
8422;DHT22;4248;48.196;10.924;2024-02-26T15:09:52;12.50;6.00
8422;DHT22;4248;48.196;10.924;2024-02-26T15:12:22;12.40;6.20
8422;DHT22;4248;48.196;10.924;2024-02-26T15:14:47;12.50;6.50
8422;DHT22;4248;48.196;10.924;2024-02-26T15:17:13;12.50;6.30
8422;DHT22;4248;48.196;10.924;2024-02-26T15:19:39;12.40;6.10
8422;DHT22;4248;48.196;10.924;2024-02-26T15:22:05;12.40;6.40
8422;DHT22;4248;48.196;10.924;2024-02-26T15:24:30;12.30;6.70
8422;DHT22;4248;48.196;10.924;2024-02-26T15:26:56;12.30;6.90
8422;DHT22;4248;48.196;10.924;2024-02-26T15:29:22;12.20;7.20
8422;DHT22;4248;48.196;10.924;2024-02-26T15:31:48;12.10;7.30
8422;DHT22;4248;48.196;10.924;2024-02-26T15:34:13;12.10;7.50
8422;DHT22;4248;48.196;10.924;2024-02-26T15:36:39;12.00;7.50
8422;DHT22;4248;48.196;10.924;2024-02-26T15:39:05;11.80;7.70
8422;DHT22;4248;48.196;10.924;2024-02-26T15:41:32;11.70;7.90
8422;DHT22;4248;48.196;10.924;2024-02-26T15:43:58;11.70;8.20
8422;DHT22;4248;48.196;10.924;2024-02-26T15:46:25;11.60;8.50
8422;DHT22;4248;48.196;10.924;2024-02-26T15:48:51;11.50;8.60
8422;DHT22;4248;48.196;10.924;2024-02-26T15:51:21;11.50;8.90
8422;DHT22;4248;48.196;10.924;2024-02-26T15:53:47;11.40;9.00
8422;DHT22;4248;48.196;10.924;2024-02-26T15:56:13;11.30;9.20
8422;DHT22;4248;48.196;10.924;2024-02-26T15:58:40;11.30;9.10
8422;DHT22;4248;48.196;10.924;2024-02-26T16:01:05;11.20;9.20